Time;durP1;ratioP1;P1;durP2;ratioP2;P2;SDS_P1;SDS_P2;PMS_P1;PMS_P2;Temp;Humidity;BMP_temperature;BMP_pressure;BME280_temperature;BME280_humidity;BME280_pressure;Samples;Min_cycle;Max_cycle;Signal;HPM_P1;HPM_P2
2023/12/10 00:00:05;;;;;;;10.03;1.97;;;9.80;99.90;;;;;;5052349;28;20500;-57
2023/12/10 00:02:31;;;;;;;17.07;1.77;;;9.80;99.90;;;;;;5052300;28;20033;-52
2023/12/10 00:04:57;;;;;;;10.90;2.10;;;9.80;99.90;;;;;;5052296;28;20036;-55
2023/12/10 00:07:23;;;;;;;14.20;2.90;;;9.90;99.90;;;;;;5052102;28;20033;-56
2023/12/10 00:09:48;;;;;;;17.30;2.30;;;9.90;99.90;;;;;;5052143;28;20037;-56
2023/12/10 00:12:14;;;;;;;15.77;2.10;;;10.00;99.90;;;;;;5052153;28;20028;-51
2023/12/10 00:14:39;;;;;;;12.63;2.33;;;10.00;99.90;;;;;;5052141;28;20473;-56
2023/12/10 00:17:05;;;;;;;10.17;1.93;;;10.00;99.90;;;;;;5034179;28;20039;-56
2023/12/10 00:19:31;;;;;;;13.63;2.13;;;10.00;99.90;;;;;;5052135;28;20067;-56
2023/12/10 00:21:57;;;;;;;18.67;2.93;;;9.90;99.90;;;;;;5051985;28;20028;-53
2023/12/10 00:24:23;;;;;;;12.30;1.67;;;10.00;99.90;;;;;;5052294;28;20032;-56
2023/12/10 00:26:49;;;;;;;15.10;2.07;;;10.00;99.90;;;;;;5051722;28;20060;-53
2023/12/10 00:29:14;;;;;;;15.50;2.33;;;10.00;99.90;;;;;;5051842;28;20486;-53
2023/12/10 00:31:44;;;;;;;13.90;1.80;;;9.90;99.90;;;;;;5051422;28;20021;-53
2023/12/10 00:34:10;;;;;;;8.93;1.93;;;9.90;99.90;;;;;;5051147;28;20083;-56
2023/12/10 00:36:35;;;;;;;16.50;1.93;;;9.90;99.90;;;;;;5051916;28;20024;-54
2023/12/10 00:39:04;;;;;;;17.97;1.67;;;9.90;99.90;;;;;;5051633;28;20068;-56
2023/12/10 00:41:30;;;;;;;13.45;2.30;;;9.90;99.90;;;;;;5051735;28;20103;-53
2023/12/10 00:43:56;;;;;;;13.73;2.63;;;9.90;99.90;;;;;;5051856;28;20029;-54
2023/12/10 00:46:22;;;;;;;16.27;2.63;;;9.90;99.90;;;;;;5051548;28;20505;-55
2023/12/10 00:48:47;;;;;;;14.57;2.10;;;9.90;99.90;;;;;;5051570;28;20056;-54
2023/12/10 00:51:23;;;;;;;10.37;2.10;;;9.90;99.90;;;;;;5051669;28;20102;-53
2023/12/10 00:53:49;;;;;;;14.10;2.20;;;9.90;99.90;;;;;;5051830;28;20436;-54
2023/12/10 00:56:16;;;;;;;14.00;2.87;;;9.90;99.90;;;;;;5051579;28;20025;-52
2023/12/10 00:58:41;;;;;;;9.80;2.07;;;9.90;99.90;;;;;;5051498;28;20116;-51
2023/12/10 01:01:07;;;;;;;9.97;2.30;;;9.90;99.90;;;;;;5051443;28;20108;-54
2023/12/10 01:03:34;;;;;;;18.13;2.53;;;9.90;99.90;;;;;;5051606;28;20025;-53
2023/12/10 01:06:03;;;;;;;14.57;2.47;;;9.90;99.90;;;;;;5051466;28;20033;-54
2023/12/10 01:08:30;;;;;;;14.23;2.40;;;9.90;99.90;;;;;;5051789;28;20047;-54
2023/12/10 01:10:56;;;;;;;13.43;3.10;;;9.90;99.90;;;;;;5051448;28;20120;-53
2023/12/10 01:13:24;;;;;;;16.07;2.40;;;9.90;99.90;;;;;;5051330;28;20549;-53
2023/12/10 01:15:55;;;;;;;12.77;2.03;;;10.00;99.90;;;;;;5051345;28;20029;-56
2023/12/10 01:18:21;;;;;;;14.50;2.23;;;10.00;99.90;;;;;;5051339;28;20022;-51
2023/12/10 01:20:47;;;;;;;13.40;2.50;;;10.00;99.90;;;;;;5051355;28;20033;-54
2023/12/10 01:23:14;;;;;;;17.07;2.30;;;10.10;99.90;;;;;;5051427;28;20031;-52
2023/12/10 01:25:40;;;;;;;14.77;2.43;;;10.10;99.90;;;;;;5051210;28;20429;-54
2023/12/10 01:28:10;;;;;;;12.67;2.40;;;10.10;99.90;;;;;;5051295;28;20039;-55
2023/12/10 01:30:36;;;;;;;10.47;2.47;;;10.00;99.90;;;;;;5051136;28;20029;-53
2023/12/10 01:33:02;;;;;;;12.73;2.00;;;10.00;99.90;;;;;;5051192;28;20147;-56
2023/12/10 01:35:28;;;;;;;11.47;2.30;;;10.00;99.90;;;;;;5051175;28;20478;-56
2023/12/10 01:37:54;;;;;;;15.20;3.20;;;10.00;99.90;;;;;;5051208;28;20489;-52
2023/12/10 01:40:19;;;;;;;11.53;1.80;;;10.10;99.90;;;;;;5050996;28;20037;-55
2023/12/10 01:42:46;;;;;;;15.67;2.07;;;10.10;99.90;;;;;;5051107;28;20036;-55
2023/12/10 01:45:12;;;;;;;9.77;2.40;;;10.10;99.90;;;;;;5054118;28;20401;-51
2023/12/10 01:47:45;;;;;;;12.13;2.00;;;10.10;99.90;;;;;;5054786;28;20029;-55
2023/12/10 01:50:12;;;;;;;10.60;1.93;;;10.10;99.90;;;;;;5036742;28;20405;-56
2023/12/10 01:52:43;;;;;;;14.00;2.33;;;10.10;99.90;;;;;;5054780;28;20037;-55
2023/12/10 01:55:10;;;;;;;9.83;1.83;;;10.10;99.90;;;;;;5054578;28;20084;-50
2023/12/10 01:57:36;;;;;;;9.90;1.10;;;10.00;99.90;;;;;;5054729;28;20025;-54
2023/12/10 02:00:07;;;;;;;9.47;1.77;;;10.00;99.90;;;;;;5054694;28;20021;-52
2023/12/10 02:02:38;;;;;;;12.43;1.90;;;10.10;99.90;;;;;;5054979;28;20035;-55
2023/12/10 02:05:09;;;;;;;12.80;2.03;;;10.00;99.90;;;;;;5054649;28;20378;-51
2023/12/10 02:07:35;;;;;;;13.60;1.90;;;10.00;99.90;;;;;;5054441;28;20033;-50
2023/12/10 02:10:04;;;;;;;14.37;2.20;;;9.90;99.90;;;;;;5054403;28;20029;-53
2023/12/10 02:12:30;;;;;;;11.85;2.15;;;9.80;99.90;;;;;;5054470;28;20102;-52
2023/12/10 02:14:56;;;;;;;13.70;1.77;;;9.70;99.90;;;;;;5054416;28;20493;-52
2023/12/10 02:17:21;;;;;;;7.17;1.80;;;9.70;99.90;;;;;;5054155;28;20025;-53
2023/12/10 02:19:47;;;;;;;12.87;2.07;;;9.70;99.90;;;;;;5054206;28;20451;-54
2023/12/10 02:22:18;;;;;;;12.47;2.47;;;9.70;99.90;;;;;;5054139;28;20029;-52
2023/12/10 02:24:52;;;;;;;12.63;2.30;;;9.70;99.90;;;;;;5054488;28;20029;-53
2023/12/10 02:27:19;;;;;;;13.20;2.20;;;9.70;99.90;;;;;;5054084;28;20037;-54
2023/12/10 02:29:45;;;;;;;8.00;1.60;;;9.60;99.90;;;;;;5054050;28;20029;-52
2023/12/10 02:32:10;;;;;;;10.87;2.00;;;9.70;99.90;;;;;;5054028;28;20033;-50
2023/12/10 02:34:36;;;;;;;10.40;2.17;;;9.70;99.90;;;;;;5053876;28;20028;-51
2023/12/10 02:37:02;;;;;;;10.47;2.03;;;9.70;99.90;;;;;;5036110;28;20025;-54
2023/12/10 02:39:28;;;;;;;11.70;1.97;;;9.70;99.90;;;;;;5053720;28;20484;-53
2023/12/10 02:41:54;;;;;;;9.60;1.10;;;9.70;99.90;;;;;;5053908;28;20068;-51
2023/12/10 02:44:19;;;;;;;10.60;1.70;;;9.80;99.90;;;;;;5053866;28;20039;-52
2023/12/10 02:46:47;;;;;;;11.87;2.27;;;9.90;99.90;;;;;;5053658;28;20036;-52
2023/12/10 02:49:13;;;;;;;7.90;1.50;;;9.90;99.90;;;;;;5053615;28;20425;-53
2023/12/10 02:51:39;;;;;;;10.23;2.00;;;9.90;99.90;;;;;;5053638;28;20025;-50
2023/12/10 02:54:05;;;;;;;9.47;1.90;;;9.90;99.90;;;;;;5053612;28;20573;-52
2023/12/10 02:56:30;;;;;;;8.13;1.83;;;9.90;99.90;;;;;;5052599;28;20102;-51
2023/12/10 02:58:56;;;;;;;16.27;2.20;;;9.80;99.90;;;;;;5035540;28;20052;-53
2023/12/10 03:01:21;;;;;;;7.87;1.50;;;9.80;99.90;;;;;;5053384;28;20052;-53
2023/12/10 03:03:47;;;;;;;12.33;2.07;;;9.80;99.90;;;;;;5053835;28;20035;-55
2023/12/10 03:06:13;;;;;;;13.53;2.90;;;9.70;99.90;;;;;;5053417;28;20087;-54
2023/12/10 03:08:38;;;;;;;11.73;2.67;;;9.70;99.90;;;;;;5053270;28;20037;-52
2023/12/10 03:11:04;;;;;;;10.27;2.33;;;9.60;99.90;;;;;;5053329;28;20359;-53
2023/12/10 03:13:30;;;;;;;12.70;2.10;;;9.60;99.90;;;;;;5053195;28;20040;-56
2023/12/10 03:15:55;;;;;;;10.70;1.30;;;9.60;99.90;;;;;;5053014;28;20040;-53
2023/12/10 03:18:21;;;;;;;8.53;1.60;;;9.40;99.90;;;;;;5053048;28;20032;-52
2023/12/10 03:20:46;;;;;;;11.20;1.73;;;9.40;99.90;;;;;;5053109;28;20033;-56
2023/12/10 03:23:12;;;;;;;10.17;2.27;;;9.30;99.90;;;;;;5035275;28;20033;-51
2023/12/10 03:25:37;;;;;;;9.27;1.40;;;9.30;99.90;;;;;;5052843;28;20021;-52
2023/12/10 03:28:03;;;;;;;9.90;1.30;;;9.20;99.90;;;;;;5035160;28;20037;-52
2023/12/10 03:30:29;;;;;;;11.30;1.50;;;9.20;99.90;;;;;;5052828;28;20024;-56
2023/12/10 03:32:54;;;;;;;13.80;1.90;;;9.10;99.90;;;;;;5052911;28;20035;-55
2023/12/10 03:35:20;;;;;;;7.97;1.23;;;9.00;99.90;;;;;;5052649;28;20074;-56
2023/12/10 03:37:45;;;;;;;8.40;1.50;;;9.00;99.90;;;;;;5052837;28;20486;-52
2023/12/10 03:40:11;;;;;;;14.03;1.90;;;9.00;99.90;;;;;;5052606;28;20475;-53
2023/12/10 03:42:37;;;;;;;10.03;1.70;;;8.90;99.90;;;;;;5052739;28;20032;-56
2023/12/10 03:45:03;;;;;;;9.93;1.73;;;8.90;99.90;;;;;;5052681;28;20067;-55
2023/12/10 03:47:29;;;;;;;12.70;2.97;;;8.90;99.90;;;;;;5052494;28;20033;-51
2023/12/10 03:49:54;;;;;;;13.13;2.00;;;8.80;99.90;;;;;;5052553;28;20462;-55
2023/12/10 03:52:20;;;;;;;8.03;1.60;;;8.80;99.90;;;;;;5052570;28;20401;-54
2023/12/10 03:54:45;;;;;;;11.60;1.60;;;8.80;99.90;;;;;;5052475;28;20029;-52
2023/12/10 03:57:11;;;;;;;10.83;1.90;;;8.80;99.90;;;;;;5052359;28;20374;-55
2023/12/10 03:59:36;;;;;;;9.57;2.40;;;8.80;99.90;;;;;;5052317;28;20043;-50
2023/12/10 04:02:02;;;;;;;8.53;1.00;;;8.70;99.90;;;;;;5052310;28;20080;-51
2023/12/10 04:04:28;;;;;;;9.83;1.73;;;8.70;99.90;;;;;;5034577;28;20083;-51
2023/12/10 04:06:53;;;;;;;17.37;2.10;;;8.60;99.90;;;;;;5051961;28;20032;-56
2023/12/10 04:09:19;;;;;;;9.87;1.30;;;8.60;99.90;;;;;;5052198;28;20037;-51
2023/12/10 04:11:45;;;;;;;11.73;1.80;;;8.60;99.90;;;;;;5052154;28;20112;-54
2023/12/10 04:14:10;;;;;;;14.53;2.07;;;8.60;99.90;;;;;;5052085;28;20029;-54
2023/12/10 04:16:37;;;;;;;13.70;2.00;;;8.60;99.90;;;;;;5051954;28;20120;-55
2023/12/10 04:19:03;;;;;;;16.50;2.63;;;8.50;99.90;;;;;;5051968;28;20033;-52
2023/12/10 04:21:29;;;;;;;7.77;2.27;;;8.60;99.90;;;;;;5052077;28;20037;-54
2023/12/10 04:23:54;;;;;;;7.80;1.80;;;8.50;99.90;;;;;;5034212;28;20040;-55
2023/12/10 04:26:21;;;;;;;12.13;1.70;;;8.50;99.90;;;;;;5051977;28;20040;-53
2023/12/10 04:28:46;;;;;;;12.67;2.03;;;8.50;99.90;;;;;;5033970;28;20033;-55
2023/12/10 04:31:12;;;;;;;8.07;1.17;;;8.50;99.90;;;;;;5051890;28;20094;-53
2023/12/10 04:33:38;;;;;;;8.87;1.50;;;8.50;99.90;;;;;;5052252;28;20090;-55
2023/12/10 04:36:04;;;;;;;13.17;1.77;;;8.50;99.90;;;;;;5051742;28;20029;-56
2023/12/10 04:38:30;;;;;;;11.43;1.63;;;8.50;99.90;;;;;;5051621;28;20025;-53
2023/12/10 04:40:55;;;;;;;6.00;1.20;;;8.50;99.90;;;;;;5034035;28;20031;-54
2023/12/10 04:43:21;;;;;;;10.30;1.33;;;8.50;99.90;;;;;;5051703;28;20036;-55
2023/12/10 04:45:47;;;;;;;8.40;1.37;;;8.50;99.90;;;;;;5051544;28;20021;-52
2023/12/10 04:48:13;;;;;;;11.90;1.70;;;8.60;99.90;;;;;;5051621;28;20477;-54
2023/12/10 04:50:40;;;;;;;7.77;1.57;;;8.60;99.90;;;;;;5051811;28;20033;-54
2023/12/10 04:53:06;;;;;;;7.13;1.33;;;8.60;99.90;;;;;;5051615;28;20118;-53
2023/12/10 04:55:32;;;;;;;12.20;1.93;;;8.60;99.90;;;;;;5051557;28;20029;-55
2023/12/10 04:57:59;;;;;;;14.87;2.40;;;8.60;99.90;;;;;;5051533;28;20068;-56
2023/12/10 05:00:24;;;;;;;11.47;2.47;;;8.70;99.90;;;;;;5051399;28;20108;-52
2023/12/10 05:02:50;;;;;;;9.03;2.30;;;8.70;99.90;;;;;;5051527;28;20187;-53
2023/12/10 05:05:16;;;;;;;8.80;1.00;;;8.70;99.90;;;;;;5051416;28;20044;-51
2023/12/10 05:07:42;;;;;;;13.57;2.80;;;8.80;99.90;;;;;;5051414;28;20474;-53
2023/12/10 05:10:08;;;;;;;16.53;2.73;;;8.90;99.90;;;;;;5051419;28;20108;-50
2023/12/10 05:12:34;;;;;;;10.63;1.87;;;8.90;99.90;;;;;;5051406;28;20145;-49
2023/12/10 05:14:59;;;;;;;10.50;1.53;;;8.90;99.90;;;;;;5051365;28;20041;-50
2023/12/10 05:17:25;;;;;;;10.87;1.83;;;9.00;99.90;;;;;;5051322;28;20025;-50
2023/12/10 05:19:51;;;;;;;8.93;1.37;;;9.00;99.90;;;;;;5053957;28;20033;-54
2023/12/10 05:22:16;;;;;;;10.97;2.03;;;9.00;99.90;;;;;;5055292;28;20028;-53
2023/12/10 05:24:42;;;;;;;8.37;2.43;;;9.10;99.90;;;;;;5055390;28;20092;-50
2023/12/10 05:27:09;;;;;;;11.73;1.57;;;9.10;99.90;;;;;;5037230;28;20033;-54
2023/12/10 05:29:35;;;;;;;10.90;1.93;;;9.10;99.90;;;;;;5055116;28;20083;-51
2023/12/10 05:32:00;;;;;;;9.30;1.73;;;9.20;99.90;;;;;;5037329;28;20037;-55
2023/12/10 05:34:26;;;;;;;7.73;1.30;;;9.20;99.90;;;;;;5055336;28;20033;-52
2023/12/10 05:36:51;;;;;;;10.77;2.30;;;9.20;99.90;;;;;;5054979;28;20025;-51
2023/12/10 05:39:17;;;;;;;11.93;1.90;;;9.20;99.90;;;;;;5054911;28;20492;-54
2023/12/10 05:41:43;;;;;;;9.93;1.43;;;9.20;99.90;;;;;;5054995;28;20029;-54
2023/12/10 05:44:08;;;;;;;9.23;1.40;;;9.30;99.90;;;;;;5055017;28;20423;-51
2023/12/10 05:46:34;;;;;;;7.43;1.17;;;9.30;99.90;;;;;;5054801;28;20025;-53
2023/12/10 05:49:01;;;;;;;10.70;1.37;;;9.30;99.90;;;;;;5054648;28;20496;-53
2023/12/10 05:51:27;;;;;;;8.17;1.20;;;9.30;99.90;;;;;;5054719;28;20155;-53
2023/12/10 05:53:53;;;;;;;6.83;1.20;;;9.30;99.90;;;;;;5054724;28;20503;-50
2023/12/10 05:56:18;;;;;;;9.93;1.57;;;9.40;99.90;;;;;;5054660;28;20124;-54
2023/12/10 05:58:44;;;;;;;10.60;1.20;;;9.40;99.90;;;;;;5054520;28;20118;-50
2023/12/10 06:01:09;;;;;;;11.53;1.13;;;9.40;99.90;;;;;;5054714;28;20033;-50
2023/12/10 06:03:35;;;;;;;10.30;2.03;;;9.40;99.90;;;;;;5054612;28;20095;-50
2023/12/10 06:06:01;;;;;;;12.20;1.57;;;9.50;99.90;;;;;;5054519;28;20029;-54
2023/12/10 06:08:26;;;;;;;6.83;1.80;;;9.50;99.90;;;;;;5054435;28;20035;-54
2023/12/10 06:10:52;;;;;;;13.83;1.87;;;9.50;99.90;;;;;;5054479;28;20375;-54
2023/12/10 06:13:17;;;;;;;8.80;1.30;;;9.50;99.90;;;;;;5054379;28;20072;-53
2023/12/10 06:15:46;;;;;;;17.27;1.80;;;9.50;99.90;;;;;;5054231;28;20502;-52
2023/12/10 06:18:12;;;;;;;8.00;1.50;;;9.50;99.90;;;;;;5054478;28;20665;-53
2023/12/10 06:20:37;;;;;;;11.00;2.43;;;9.50;99.90;;;;;;5054289;28;20439;-53
2023/12/10 06:23:03;;;;;;;13.30;1.67;;;9.60;99.90;;;;;;5054229;28;20082;-52
2023/12/10 06:25:28;;;;;;;6.00;1.57;;;9.60;99.90;;;;;;5036232;28;20378;-52
2023/12/10 06:27:56;;;;;;;7.70;1.43;;;9.60;99.90;;;;;;5054104;28;20028;-53
2023/12/10 06:30:22;;;;;;;9.47;1.43;;;9.60;99.90;;;;;;5054017;28;20028;-52
2023/12/10 06:32:48;;;;;;;7.33;1.27;;;9.60;99.90;;;;;;5054026;28;20098;-54
2023/12/10 06:35:14;;;;;;;18.20;2.20;;;9.60;99.90;;;;;;5053793;28;20025;-54
2023/12/10 06:37:40;;;;;;;7.83;1.50;;;9.70;99.90;;;;;;5054305;28;20529;-54
2023/12/10 06:40:07;;;;;;;9.93;1.20;;;9.70;99.90;;;;;;5053660;28;20021;-52
2023/12/10 06:42:34;;;;;;;10.50;1.60;;;9.70;99.90;;;;;;5053845;28;20033;-50
2023/12/10 06:45:00;;;;;;;8.37;1.17;;;9.70;99.90;;;;;;5053833;28;20171;-54
2023/12/10 06:47:26;;;;;;;11.80;1.80;;;9.70;99.90;;;;;;5053700;28;20036;-53
2023/12/10 06:49:51;;;;;;;10.50;1.67;;;9.70;99.90;;;;;;5053704;28;20032;-54
2023/12/10 06:52:17;;;;;;;11.00;1.73;;;9.70;99.90;;;;;;5053717;28;20025;-50
2023/12/10 06:54:43;;;;;;;11.70;1.37;;;9.70;99.90;;;;;;5053572;28;20067;-55
2023/12/10 06:57:08;;;;;;;10.30;1.83;;;9.70;99.90;;;;;;5053436;28;20031;-54
2023/12/10 06:59:34;;;;;;;19.13;3.00;;;9.70;99.90;;;;;;5035647;28;20366;-55
2023/12/10 07:02:00;;;;;;;13.93;2.07;;;9.70;99.90;;;;;;5053502;28;20510;-55
2023/12/10 07:04:25;;;;;;;7.23;1.63;;;9.80;99.90;;;;;;5053605;28;20037;-55
2023/12/10 07:06:51;;;;;;;10.43;1.60;;;9.80;99.90;;;;;;5053355;28;20035;-53
2023/12/10 07:09:16;;;;;;;13.67;1.70;;;9.70;99.90;;;;;;5053355;28;20082;-53
2023/12/10 07:11:42;;;;;;;8.30;1.77;;;9.60;99.90;;;;;;5053364;28;20052;-55
2023/12/10 07:14:08;;;;;;;7.77;1.27;;;9.60;99.90;;;;;;5053285;28;20036;-52
2023/12/10 07:16:33;;;;;;;10.27;1.30;;;9.70;99.90;;;;;;5053290;28;20022;-51
2023/12/10 07:18:59;;;;;;;12.10;1.30;;;9.70;99.90;;;;;;5053204;28;20653;-55
2023/12/10 07:21:24;;;;;;;9.80;1.30;;;9.80;99.90;;;;;;5053280;28;20104;-55
2023/12/10 07:23:50;;;;;;;8.93;1.37;;;9.80;99.90;;;;;;5053207;28;20431;-55
2023/12/10 07:26:23;;;;;;;10.10;1.27;;;9.70;99.90;;;;;;5052981;28;20029;-54
2023/12/10 07:28:49;;;;;;;12.90;2.03;;;9.80;99.90;;;;;;5052996;28;20029;-52
2023/12/10 07:31:14;;;;;;;8.53;1.43;;;9.70;99.90;;;;;;5052998;28;20044;-54
2023/12/10 07:33:40;;;;;;;13.77;1.97;;;9.80;99.90;;;;;;5052885;28;20124;-54
2023/12/10 07:36:06;;;;;;;7.17;1.13;;;9.70;99.90;;;;;;5052801;28;20090;-54
2023/12/10 07:38:31;;;;;;;10.80;1.73;;;9.80;99.90;;;;;;5052746;28;20382;-55
2023/12/10 07:40:57;;;;;;;8.60;1.10;;;9.70;99.90;;;;;;5052782;28;20086;-53
2023/12/10 07:43:23;;;;;;;11.13;1.40;;;9.70;99.90;;;;;;5052678;28;20051;-54
2023/12/10 07:45:48;;;;;;;6.70;1.20;;;9.70;99.90;;;;;;5052796;28;20115;-54
2023/12/10 07:48:14;;;;;;;17.10;1.90;;;9.70;99.90;;;;;;5052883;28;20048;-51
2023/12/10 07:50:39;;;;;;;6.67;1.40;;;9.70;99.90;;;;;;5052687;28;20032;-49
2023/12/10 07:53:05;;;;;;;6.80;1.40;;;9.70;99.90;;;;;;5052616;28;20025;-53
2023/12/10 07:55:31;;;;;;;11.63;2.23;;;9.70;99.90;;;;;;5052317;28;20432;-51
2023/12/10 07:57:56;;;;;;;16.40;3.90;;;9.70;99.90;;;;;;5052486;28;20029;-51
2023/12/10 08:00:22;;;;;;;10.27;1.60;;;9.70;99.90;;;;;;5052340;28;20021;-52
2023/12/10 08:02:47;;;;;;;8.07;1.40;;;9.70;99.90;;;;;;5052453;28;20075;-52
2023/12/10 08:05:13;;;;;;;10.73;1.80;;;9.80;99.90;;;;;;5052183;28;20501;-51
2023/12/10 08:07:39;;;;;;;13.77;2.03;;;9.80;99.90;;;;;;5052220;28;20029;-50
2023/12/10 08:10:05;;;;;;;7.33;1.77;;;9.80;99.90;;;;;;5052633;28;20120;-53
2023/12/10 08:12:31;;;;;;;8.53;1.40;;;9.80;99.90;;;;;;5052366;28;20036;-53
2023/12/10 08:14:56;;;;;;;9.30;1.70;;;9.80;99.90;;;;;;5034444;28;20289;-51
2023/12/10 08:17:22;;;;;;;8.53;2.23;;;9.70;99.90;;;;;;5052031;28;20021;-50
2023/12/10 08:19:48;;;;;;;9.77;1.60;;;9.70;99.90;;;;;;5052147;28;20024;-50
2023/12/10 08:22:13;;;;;;;15.87;1.70;;;9.70;99.90;;;;;;5052046;28;20104;-51
2023/12/10 08:24:40;;;;;;;9.57;1.87;;;9.70;99.90;;;;;;5051924;28;20623;-50
2023/12/10 08:27:05;;;;;;;9.23;1.93;;;9.70;99.90;;;;;;5034102;28;20540;-53
2023/12/10 08:29:31;;;;;;;9.77;1.40;;;9.70;99.90;;;;;;5051968;28;20037;-52
2023/12/10 08:31:56;;;;;;;7.47;1.10;;;9.70;99.90;;;;;;5051870;28;20393;-50
2023/12/10 08:34:22;;;;;;;12.20;1.40;;;9.70;99.90;;;;;;5051858;28;20474;-49
2023/12/10 08:36:48;;;;;;;11.50;2.17;;;9.70;99.90;;;;;;5051884;28;20033;-53
2023/12/10 08:39:13;;;;;;;11.23;2.07;;;9.60;99.90;;;;;;5051777;28;20466;-53
2023/12/10 08:41:39;;;;;;;12.73;1.77;;;9.70;99.90;;;;;;5051781;28;20055;-53
2023/12/10 08:44:05;;;;;;;13.60;1.87;;;9.70;99.90;;;;;;5034007;28;20039;-51
2023/12/10 08:46:31;;;;;;;11.90;2.30;;;9.60;99.90;;;;;;5051786;28;20049;-51
2023/12/10 08:48:57;;;;;;;16.50;1.87;;;9.60;99.90;;;;;;5051703;28;20039;-51
2023/12/10 08:51:23;;;;;;;10.73;1.97;;;9.70;99.90;;;;;;5051778;28;20473;-54
2023/12/10 08:53:48;;;;;;;11.50;1.80;;;9.60;99.90;;;;;;5050748;28;20031;-52
2023/12/10 08:56:14;;;;;;;14.77;1.47;;;9.60;99.90;;;;;;5051510;28;20028;-55
2023/12/10 08:58:39;;;;;;;14.27;2.40;;;9.60;99.90;;;;;;5051664;28;20032;-54
2023/12/10 09:01:06;;;;;;;15.20;1.97;;;9.70;99.90;;;;;;5051626;28;20474;-55
2023/12/10 09:03:32;;;;;;;15.60;2.10;;;9.60;99.90;;;;;;5051625;28;20029;-56
2023/12/10 09:05:58;;;;;;;7.23;1.50;;;9.60;99.90;;;;;;5051537;28;20033;-53
2023/12/10 09:08:26;;;;;;;9.43;1.50;;;9.60;99.90;;;;;;5051353;28;20413;-56
2023/12/10 09:10:52;;;;;;;15.07;1.60;;;9.60;99.90;;;;;;5051483;28;20093;-54
2023/12/10 09:13:19;;;;;;;8.97;1.73;;;9.60;99.90;;;;;;5051389;28;20060;-53
2023/12/10 09:15:44;;;;;;;5.67;1.13;;;9.60;99.90;;;;;;5051551;28;20033;-55
2023/12/10 09:18:10;;;;;;;11.90;1.37;;;9.60;99.90;;;;;;5051579;28;20040;-55
2023/12/10 09:20:36;;;;;;;10.93;1.90;;;9.60;99.90;;;;;;5051321;28;20033;-56
2023/12/10 09:23:02;;;;;;;9.37;1.67;;;9.60;99.90;;;;;;5051416;28;20108;-50
2023/12/10 09:25:27;;;;;;;21.27;5.33;;;9.50;99.90;;;;;;5051365;28;20029;-55
2023/12/10 09:27:53;;;;;;;15.93;4.73;;;9.50;99.90;;;;;;5051390;28;20033;-54
2023/12/10 09:30:19;;;;;;;16.83;4.07;;;9.60;99.90;;;;;;5051322;28;20128;-56
2023/12/10 09:32:44;;;;;;;14.70;2.03;;;9.60;99.90;;;;;;5051356;28;20040;-55
2023/12/10 09:35:10;;;;;;;9.50;1.73;;;9.60;99.90;;;;;;5051790;28;20025;-55
2023/12/10 09:37:37;;;;;;;10.87;1.70;;;9.70;99.90;;;;;;5051171;28;20079;-56
2023/12/10 09:40:04;;;;;;;9.67;1.10;;;9.60;99.90;;;;;;5050979;28;20486;-50
2023/12/10 09:42:29;;;;;;;7.50;1.20;;;9.60;99.90;;;;;;5051543;28;20371;-50
2023/12/10 09:44:55;;;;;;;14.67;1.63;;;9.60;99.90;;;;;;5051334;28;20035;-54
2023/12/10 09:47:23;;;;;;;13.80;1.77;;;9.60;99.90;;;;;;5051095;28;20496;-54
2023/12/10 09:49:54;;;;;;;11.10;1.83;;;9.60;99.90;;;;;;5051271;28;20623;-50
2023/12/10 09:52:19;;;;;;;8.50;1.50;;;9.60;99.90;;;;;;5051023;28;20036;-54
2023/12/10 09:54:45;;;;;;;14.80;1.60;;;9.60;99.90;;;;;;5051081;28;20535;-52
2023/12/10 09:57:12;;;;;;;15.07;2.00;;;9.70;99.90;;;;;;5050992;28;20021;-55
2023/12/10 09:59:38;;;;;;;8.33;2.13;;;9.60;99.90;;;;;;5051086;28;20094;-49
2023/12/10 10:02:06;;;;;;;10.70;1.60;;;9.70;99.90;;;;;;5033201;28;20025;-51
2023/12/10 10:04:31;;;;;;;7.90;1.90;;;9.70;99.90;;;;;;5051454;28;20052;-53
2023/12/10 10:06:57;;;;;;;12.87;1.63;;;9.70;99.90;;;;;;5054499;28;20485;-53
2023/12/10 10:09:23;;;;;;;12.97;2.17;;;9.70;99.90;;;;;;5054510;28;20029;-51
2023/12/10 10:11:50;;;;;;;12.17;1.80;;;9.80;99.90;;;;;;5054556;28;20066;-49
2023/12/10 10:14:17;;;;;;;11.30;2.13;;;9.80;99.90;;;;;;5054477;28;20033;-55
2023/12/10 10:16:48;;;;;;;7.93;1.57;;;9.80;99.90;;;;;;5054407;28;20025;-52
2023/12/10 10:19:14;;;;;;;11.00;2.40;;;9.80;99.90;;;;;;5054241;28;20021;-52
2023/12/10 10:21:42;;;;;;;11.23;1.50;;;9.80;99.90;;;;;;5054640;28;20470;-51
2023/12/10 10:24:08;;;;;;;9.70;1.80;;;9.80;99.90;;;;;;5036555;28;20036;-55
2023/12/10 10:26:35;;;;;;;12.97;2.20;;;9.80;99.90;;;;;;5054132;28;20025;-50
2023/12/10 10:29:05;;;;;;;5.67;1.73;;;9.90;99.90;;;;;;5054149;28;20112;-52
2023/12/10 10:31:32;;;;;;;7.10;1.67;;;9.80;99.90;;;;;;5054142;28;20040;-50
2023/12/10 10:34:04;;;;;;;11.17;1.90;;;9.80;99.90;;;;;;5054018;28;20060;-51
2023/12/10 10:36:31;;;;;;;7.43;1.50;;;9.90;99.90;;;;;;5053880;28;20021;-52
2023/12/10 10:38:57;;;;;;;11.70;2.37;;;9.90;99.90;;;;;;5053824;28;20025;-54
2023/12/10 10:41:24;;;;;;;11.10;1.60;;;9.90;99.90;;;;;;5053830;28;20028;-52
2023/12/10 10:43:49;;;;;;;5.63;1.60;;;9.90;99.90;;;;;;5054397;28;20033;-53
2023/12/10 10:46:19;;;;;;;12.27;1.70;;;9.90;99.90;;;;;;5053672;28;20551;-53
2023/12/10 10:48:51;;;;;;;14.13;2.80;;;10.00;99.90;;;;;;5053720;28;20028;-55
2023/12/10 10:51:20;;;;;;;8.70;1.63;;;10.00;99.90;;;;;;5053742;28;20044;-50
2023/12/10 10:53:47;;;;;;;12.25;1.83;;;10.00;99.90;;;;;;5053785;28;20029;-51
2023/12/10 10:56:13;;;;;;;9.70;1.50;;;10.20;99.90;;;;;;5053570;28;20108;-53
2023/12/10 10:58:40;;;;;;;12.07;1.77;;;10.20;99.90;;;;;;5053657;28;20052;-54
2023/12/10 11:01:05;;;;;;;13.77;2.23;;;10.30;99.90;;;;;;5053546;28;20077;-51
2023/12/10 11:03:31;;;;;;;6.67;1.90;;;10.30;99.90;;;;;;5053562;28;20112;-50
2023/12/10 11:06:07;;;;;;;9.47;2.73;;;10.40;99.90;;;;;;5053418;28;20029;-54
2023/12/10 11:08:33;;;;;;;9.13;1.63;;;10.50;99.90;;;;;;5053374;28;20024;-53
2023/12/10 11:11:00;;;;;;;7.30;1.60;;;10.60;99.90;;;;;;5053373;28;20478;-54
2023/12/10 11:13:55;;;;;;;6.57;1.80;;;10.90;99.90;;;;;;5053289;28;20044;-55
2023/12/10 11:16:21;;;;;;;10.70;1.70;;;11.80;99.90;;;;;;5035437;28;20036;-53
2023/12/10 11:18:55;;;;;;;6.50;1.53;;;12.30;99.90;;;;;;5053056;28;20021;-50
2023/12/10 11:21:21;;;;;;;13.43;1.70;;;12.70;99.90;;;;;;5053104;28;20029;-54
2023/12/10 11:23:47;;;;;;;5.53;1.05;;;12.60;99.90;;;;;;5053336;28;20021;-53
2023/12/10 11:26:13;;;;;;;8.63;1.50;;;12.60;99.90;;;;;;5052987;28;20037;-52
2023/12/10 11:28:40;;;;;;;9.65;1.40;;;12.50;99.90;;;;;;5035027;28;20060;-51
2023/12/10 11:31:06;;;;;;;12.95;1.92;;;12.30;99.90;;;;;;5052996;28;20099;-52
2023/12/10 11:33:32;;;;;;;9.85;1.42;;;12.20;99.90;;;;;;5052769;28;20433;-54
2023/12/10 11:35:57;;;;;;;11.40;1.80;;;12.20;99.90;;;;;;5052857;28;20051;-49
2023/12/10 11:38:23;;;;;;;8.65;1.60;;;12.30;99.90;;;;;;5052609;28;20025;-52
2023/12/10 11:40:49;;;;;;;12.80;1.80;;;12.50;99.90;;;;;;5052812;28;20033;-52
2023/12/10 11:43:15;;;;;;;8.98;1.70;;;12.70;99.90;;;;;;5052697;28;20120;-52
2023/12/10 11:45:41;;;;;;;8.80;1.50;;;12.70;99.90;;;;;;5052669;28;20029;-53
2023/12/10 11:48:06;;;;;;;12.10;1.75;;;12.90;99.90;;;;;;5052648;28;20071;-52
2023/12/10 11:50:36;;;;;;;10.60;2.00;;;12.90;99.90;;;;;;5052988;28;20033;-52
2023/12/10 11:53:03;;;;;;;12.27;2.22;;;12.80;99.90;;;;;;5052551;28;20413;-50
2023/12/10 11:55:30;;;;;;;12.07;1.40;;;12.60;99.90;;;;;;5052400;28;20028;-52
2023/12/10 11:57:57;;;;;;;7.47;1.35;;;12.30;99.90;;;;;;5052568;28;20086;-52
2023/12/10 12:00:23;;;;;;;10.35;2.45;;;12.10;99.90;;;;;;5052365;28;20032;-55
2023/12/10 12:02:48;;;;;;;10.70;2.40;;;12.00;99.90;;;;;;5052436;28;20390;-52
2023/12/10 12:05:15;;;;;;;5.18;1.35;;;11.90;99.90;;;;;;5052296;28;20028;-55
2023/12/10 12:07:42;;;;;;;13.13;1.60;;;11.90;99.90;;;;;;5052256;28;20041;-54
2023/12/10 12:10:10;;;;;;;11.68;1.27;;;11.90;99.90;;;;;;5052232;28;20130;-51
2023/12/10 12:12:43;;;;;;;12.50;2.05;;;12.00;99.90;;;;;;5052251;28;20048;-52
2023/12/10 12:15:10;;;;;;;11.00;2.13;;;12.00;99.90;;;;;;5052202;28;20451;-51
2023/12/10 12:17:39;;;;;;;11.73;1.83;;;11.80;99.90;;;;;;5034205;28;20036;-53
2023/12/10 12:20:22;;;;;;;12.40;1.88;;;11.70;99.90;;;;;;5052253;28;20386;-51
2023/12/10 12:22:49;;;;;;;9.83;1.83;;;11.60;99.90;;;;;;5052183;28;20057;-51
2023/12/10 12:25:15;;;;;;;15.63;2.20;;;11.50;99.90;;;;;;5052001;28;20036;-53
2023/12/10 12:27:40;;;;;;;10.70;1.87;;;11.40;99.90;;;;;;5052060;28;20402;-54
2023/12/10 12:30:07;;;;;;;10.23;1.60;;;11.40;99.90;;;;;;5051804;28;20029;-52
2023/12/10 12:32:32;;;;;;;6.93;2.10;;;11.40;99.90;;;;;;5051903;28;20029;-53
2023/12/10 12:34:58;;;;;;;10.70;1.90;;;11.30;99.90;;;;;;5051756;28;20032;-52
2023/12/10 12:37:24;;;;;;;15.00;2.00;;;11.30;99.90;;;;;;5051563;28;20079;-54
2023/12/10 12:39:54;;;;;;;16.33;2.13;;;11.20;99.90;;;;;;5051697;28;20045;-50
2023/12/10 12:42:20;;;;;;;11.60;1.67;;;11.20;99.90;;;;;;5051520;28;20029;-54